createdAt,value
2019-06-20T00:01:19.068Z,3.00
2019-06-20T00:03:49.276Z,2.98
2019-06-20T00:06:19.408Z,3.15
2019-06-20T00:08:49.543Z,2.80
2019-06-20T00:11:19.648Z,2.83
2019-06-20T00:13:50.789Z,2.50
2019-06-20T00:16:20.894Z,2.27
2019-06-20T00:18:51.032Z,3.00
2019-06-20T00:21:21.138Z,2.40
2019-06-20T00:23:51.277Z,2.55
2019-06-20T00:26:21.380Z,2.52
2019-06-20T00:28:51.593Z,1.90
2019-06-20T00:31:21.727Z,1.90
2019-06-20T00:33:51.829Z,1.87
2019-06-20T00:36:21.965Z,2.08
2019-06-20T00:38:52.072Z,1.65
2019-06-20T00:41:22.212Z,1.67
2019-06-20T00:43:52.313Z,1.50
2019-06-20T00:46:22.459Z,1.50
2019-06-20T00:48:52.560Z,1.50
2019-06-20T00:51:22.696Z,1.70
2019-06-20T00:53:52.802Z,1.57
2019-06-20T00:56:22.941Z,1.72
2019-06-20T00:58:53.045Z,1.37
2019-06-20T01:01:26.451Z,1.42
2019-06-20T01:03:57.546Z,1.27
2019-06-20T01:06:27.693Z,1.30
2019-06-20T01:08:57.788Z,1.50
2019-06-20T01:11:27.929Z,1.57
2019-06-20T01:13:58.039Z,1.32
2019-06-20T01:16:28.173Z,1.35
2019-06-20T01:18:58.276Z,1.30
2019-06-20T01:21:28.458Z,1.50
2019-06-20T01:23:58.518Z,1.27
2019-06-20T01:26:28.662Z,1.30
2019-06-20T01:28:58.762Z,1.20
2019-06-20T01:31:28.906Z,1.10
2019-06-20T01:33:59.005Z,1.37
2019-06-20T01:36:29.148Z,1.37
2019-06-20T01:38:59.245Z,1.20
2019-06-20T01:41:29.385Z,1.07
2019-06-20T01:43:59.489Z,1.47
2019-06-20T01:46:29.635Z,1.35
2019-06-20T01:48:59.779Z,1.20
2019-06-20T01:51:29.913Z,1.42
2019-06-20T01:54:00.052Z,1.40
2019-06-20T01:56:31.260Z,1.32
2019-06-20T01:59:01.401Z,1.42
2019-06-20T02:01:31.501Z,1.22
2019-06-20T02:04:01.637Z,1.20
2019-06-20T02:06:32.736Z,1.50
2019-06-20T02:09:02.977Z,1.40
2019-06-20T02:11:33.083Z,1.20
2019-06-20T02:14:07.264Z,1.32
2019-06-20T02:16:34.949Z,1.37
2019-06-20T02:19:05.112Z,1.30
2019-06-20T02:21:35.196Z,1.40
2019-06-20T02:24:05.336Z,1.40
2019-06-20T02:26:35.500Z,1.10
2019-06-20T02:29:05.675Z,1.40
2019-06-20T02:31:35.746Z,1.37
2019-06-20T02:34:05.886Z,1.40
2019-06-20T02:36:35.986Z,1.20
2019-06-20T02:39:07.240Z,1.20
2019-06-20T02:41:37.345Z,1.50
2019-06-20T02:44:24.786Z,1.42
2019-06-20T02:46:39.214Z,1.07
2019-06-20T02:49:09.363Z,1.30
2019-06-20T02:51:39.460Z,1.15
2019-06-20T02:54:09.600Z,1.50
2019-06-20T02:56:39.701Z,1.30
2019-06-20T02:59:09.875Z,1.02
2019-06-20T03:01:39.985Z,1.10
2019-06-20T03:04:10.123Z,1.10
2019-06-20T03:06:40.262Z,1.40
2019-06-20T03:09:10.367Z,1.62
2019-06-20T03:11:40.512Z,2.05
2019-06-20T03:14:10.679Z,2.05
2019-06-20T03:16:40.797Z,1.70
2019-06-20T03:19:10.906Z,1.77
2019-06-20T03:21:41.041Z,1.77
2019-06-20T03:24:11.140Z,1.70
2019-06-20T03:26:41.280Z,1.77
2019-06-20T03:29:11.380Z,1.55
2019-06-20T03:31:41.518Z,1.50
2019-06-20T03:34:12.618Z,2.02
2019-06-20T03:36:43.757Z,2.05
2019-06-20T03:39:13.856Z,1.82
2019-06-20T03:41:43.993Z,2.27
2019-06-20T03:44:15.133Z,2.50
2019-06-20T03:46:45.229Z,2.47
2019-06-20T03:49:15.365Z,2.33
2019-06-20T03:51:45.468Z,2.40
2019-06-20T03:54:15.605Z,2.40
2019-06-20T03:56:45.709Z,2.77
2019-06-20T03:59:15.847Z,2.70
2019-06-20T04:01:49.052Z,2.67
2019-06-20T04:04:17.711Z,2.25
2019-06-20T04:06:47.818Z,2.15
2019-06-20T04:09:17.953Z,2.42
2019-06-20T04:11:48.053Z,2.30
2019-06-20T04:14:18.201Z,1.98
2019-06-20T04:16:48.311Z,1.87
2019-06-20T04:19:18.406Z,2.27
2019-06-20T04:21:48.544Z,2.75
2019-06-20T04:24:18.652Z,2.60
2019-06-20T04:26:48.788Z,1.90
2019-06-20T04:29:18.886Z,2.25
2019-06-20T04:31:49.023Z,2.00
2019-06-20T04:34:19.121Z,2.25
2019-06-20T04:36:50.264Z,2.30
2019-06-20T04:39:20.364Z,2.25
2019-06-20T04:41:50.504Z,2.12
2019-06-20T04:44:20.626Z,2.35
2019-06-20T04:46:52.316Z,2.52
2019-06-20T04:49:22.421Z,2.92
2019-06-20T04:51:52.560Z,2.20
2019-06-20T04:54:22.661Z,2.17
2019-06-20T04:56:52.805Z,2.17
2019-06-20T04:59:22.908Z,2.15
2019-06-20T05:01:53.109Z,1.85
2019-06-20T05:04:23.342Z,2.30
2019-06-20T05:07:15.917Z,2.45
2019-06-20T05:09:46.041Z,2.15
2019-06-20T05:12:16.161Z,2.37
2019-06-20T05:14:46.300Z,2.52
2019-06-20T05:17:16.400Z,2.10
2019-06-20T05:19:46.545Z,2.40
2019-06-20T05:22:16.641Z,2.33
2019-06-20T05:24:46.782Z,2.50
2019-06-20T05:27:16.889Z,2.45
2019-06-20T05:29:47.020Z,2.30
2019-06-20T05:32:17.142Z,2.02
2019-06-20T05:34:47.283Z,2.33
2019-06-20T05:37:17.381Z,2.27
2019-06-20T05:39:47.525Z,2.37
2019-06-20T05:42:18.492Z,2.22
2019-06-20T05:44:48.628Z,2.08
2019-06-20T05:47:18.743Z,2.22
2019-06-20T05:49:48.885Z,1.80
2019-06-20T05:52:18.989Z,2.45
2019-06-20T05:54:49.127Z,2.10
2019-06-20T05:57:19.266Z,2.17
2019-06-20T05:59:49.406Z,2.20
2019-06-20T06:02:19.513Z,1.80
2019-06-20T06:04:49.656Z,1.45
2019-06-20T06:07:19.767Z,2.25
2019-06-20T06:09:49.896Z,2.50
2019-06-20T06:12:19.997Z,2.08
2019-06-20T06:14:50.138Z,2.27
2019-06-20T06:17:21.078Z,2.47
2019-06-20T06:19:51.333Z,1.98
2019-06-20T06:22:21.479Z,2.40
2019-06-20T06:24:51.590Z,2.20
2019-06-20T06:27:21.718Z,2.50
2019-06-20T06:29:51.815Z,2.20
2019-06-20T06:32:21.960Z,2.02
2019-06-20T06:34:52.060Z,1.95
2019-06-20T06:37:22.197Z,1.87
2019-06-20T06:39:52.303Z,2.42
2019-06-20T06:42:22.447Z,2.35
2019-06-20T06:44:52.545Z,2.50
2019-06-20T06:47:22.683Z,1.72
2019-06-20T06:49:52.800Z,1.25
2019-06-20T06:52:22.938Z,2.20
2019-06-20T06:54:53.038Z,1.70
2019-06-20T06:57:23.211Z,1.95
2019-06-20T06:59:53.304Z,1.80
2019-06-20T07:02:23.417Z,2.10
2019-06-20T07:04:53.521Z,1.85
2019-06-20T07:07:23.853Z,2.02
2019-06-20T07:09:53.957Z,1.77
2019-06-20T07:12:24.097Z,1.70
2019-06-20T07:14:54.215Z,1.87
2019-06-20T07:17:24.353Z,2.12
2019-06-20T07:19:54.458Z,1.90
2019-06-20T07:22:24.607Z,1.80
2019-06-20T07:24:54.696Z,1.87
2019-06-20T07:27:24.838Z,2.00
2019-06-20T07:29:54.973Z,2.30
2019-06-20T07:32:25.074Z,1.95
2019-06-20T07:34:55.225Z,2.02
2019-06-20T07:37:25.309Z,2.15
2019-06-20T07:39:55.453Z,2.05
2019-06-20T07:42:25.548Z,2.20
2019-06-20T07:44:55.688Z,2.00
2019-06-20T07:47:26.809Z,2.25
2019-06-20T07:49:56.944Z,2.17
2019-06-20T07:52:27.036Z,1.77
2019-06-20T07:54:57.178Z,2.00
2019-06-20T07:57:27.357Z,1.98
2019-06-20T07:59:57.508Z,2.20
2019-06-20T08:02:27.614Z,2.22
2019-06-20T08:04:58.461Z,2.20
2019-06-20T08:07:28.559Z,2.10
2019-06-20T08:09:58.701Z,2.00
2019-06-20T08:12:28.808Z,2.00
2019-06-20T08:15:14.052Z,1.80
2019-06-20T08:17:35.416Z,2.30
2019-06-20T08:20:02.441Z,2.10
2019-06-20T08:22:32.676Z,2.00
2019-06-20T08:25:03.326Z,1.80
2019-06-20T08:27:53.540Z,1.82
2019-06-20T08:30:31.914Z,1.82
2019-06-20T08:33:07.452Z,1.62
2019-06-20T08:35:33.783Z,1.95
2019-06-20T08:38:05.578Z,2.20
2019-06-20T08:40:37.216Z,2.17
2019-06-20T08:43:07.363Z,1.92
2019-06-20T08:45:38.203Z,1.98
2019-06-20T08:48:08.401Z,2.30
2019-06-20T08:50:38.500Z,1.67
2019-06-20T08:53:08.636Z,1.90
2019-06-20T08:55:40.386Z,1.52
2019-06-20T08:58:10.528Z,1.85
2019-06-20T09:00:40.651Z,1.90
2019-06-20T09:03:10.789Z,2.33
2019-06-20T09:05:40.884Z,2.02
2019-06-20T09:08:11.865Z,2.08
2019-06-20T09:10:42.363Z,1.80
2019-06-20T09:13:12.793Z,2.10
2019-06-20T09:15:42.997Z,1.98
2019-06-20T09:18:13.360Z,1.90
2019-06-20T09:20:44.444Z,1.90
2019-06-20T09:23:14.580Z,1.92
2019-06-20T09:25:44.686Z,1.80
2019-06-20T09:28:14.819Z,2.00
2019-06-20T09:30:44.920Z,2.17
2019-06-20T09:33:15.367Z,1.85
2019-06-20T09:35:45.464Z,2.05
2019-06-20T09:38:15.609Z,1.60
2019-06-20T09:40:46.010Z,2.00
2019-06-20T09:43:27.142Z,2.00
2019-06-20T09:45:47.983Z,2.00
2019-06-20T09:48:18.116Z,2.12
2019-06-20T09:50:49.411Z,1.77
2019-06-20T09:53:19.995Z,1.70
2019-06-20T09:55:51.621Z,1.70
2019-06-20T09:58:21.933Z,2.30
2019-06-20T10:00:52.868Z,2.10
2019-06-20T10:03:23.080Z,2.42
2019-06-20T10:05:54.508Z,2.20
2019-06-20T10:08:24.922Z,2.30
2019-06-20T10:10:56.219Z,2.30
2019-06-20T10:13:26.560Z,1.87
2019-06-20T10:15:56.701Z,1.72
2019-06-20T10:18:26.793Z,2.33
2019-06-20T10:20:57.701Z,2.15
2019-06-20T10:23:28.944Z,2.60
2019-06-20T10:25:59.083Z,2.00
2019-06-20T10:28:29.189Z,2.05
2019-06-20T10:30:59.324Z,2.10
2019-06-20T10:33:29.450Z,2.15
2019-06-20T10:35:59.592Z,2.60
2019-06-20T10:38:30.788Z,2.22
2019-06-20T10:41:00.930Z,2.17
2019-06-20T10:43:31.037Z,2.12
2019-06-20T10:46:01.173Z,2.22
2019-06-20T10:48:31.277Z,2.27
2019-06-20T10:51:19.275Z,2.50
2019-06-20T10:53:49.780Z,2.37
2019-06-20T10:56:19.920Z,1.82
2019-06-20T10:58:50.723Z,1.80
2019-06-20T11:01:20.974Z,2.10
2019-06-20T11:03:51.081Z,1.80
2019-06-20T11:06:21.209Z,2.10
2019-06-20T11:08:51.312Z,1.92
2019-06-20T11:11:21.452Z,1.62
2019-06-20T11:13:51.550Z,1.75
2019-06-20T11:16:21.694Z,1.80
2019-06-20T11:18:51.849Z,1.62
2019-06-20T11:21:21.945Z,1.80
2019-06-20T11:23:52.084Z,1.77
2019-06-20T11:26:22.192Z,1.60
2019-06-20T11:28:52.462Z,1.52
2019-06-20T11:31:23.630Z,1.65
2019-06-20T11:33:53.774Z,1.12
2019-06-20T11:36:23.869Z,1.50
2019-06-20T11:38:54.007Z,1.20
2019-06-20T11:41:24.108Z,1.07
2019-06-20T11:43:55.243Z,1.15
2019-06-20T11:46:25.344Z,1.40
2019-06-20T11:48:55.491Z,1.40
2019-06-20T11:51:25.586Z,1.37
2019-06-20T11:53:55.725Z,1.25
2019-06-20T11:56:25.844Z,1.20
2019-06-20T11:58:55.969Z,1.30
2019-06-20T12:01:32.793Z,1.30
2019-06-20T12:03:57.837Z,1.20
2019-06-20T12:06:27.943Z,1.00
2019-06-20T12:08:58.384Z,1.40
2019-06-20T12:11:28.488Z,1.55
2019-06-20T12:13:58.629Z,1.72
2019-06-20T12:16:28.728Z,1.30
2019-06-20T12:18:58.874Z,1.67
2019-06-20T12:21:28.973Z,1.40
2019-06-20T12:23:59.124Z,1.55
2019-06-20T12:26:29.232Z,1.67
2019-06-20T12:28:59.373Z,1.60
2019-06-20T12:31:29.507Z,1.52
2019-06-20T12:33:59.608Z,1.70
2019-06-20T12:36:29.756Z,1.45
2019-06-20T12:38:59.844Z,1.92
2019-06-20T12:41:30.033Z,1.70
2019-06-20T12:44:00.201Z,1.60
2019-06-20T12:46:30.341Z,1.92
2019-06-20T12:49:00.451Z,1.62
2019-06-20T12:51:30.588Z,1.85
2019-06-20T12:54:00.707Z,2.20
2019-06-20T12:56:30.854Z,2.00
2019-06-20T12:59:00.971Z,1.82
2019-06-20T13:01:36.831Z,2.05
2019-06-20T13:04:02.853Z,1.80
2019-06-20T13:06:32.997Z,2.10
2019-06-20T13:09:03.701Z,1.82
2019-06-20T13:11:34.341Z,1.77
2019-06-20T13:14:04.439Z,1.92
2019-06-20T13:16:35.587Z,1.60
2019-06-20T13:19:05.687Z,2.10
2019-06-20T13:21:35.792Z,2.05
2019-06-20T13:24:05.933Z,2.10
2019-06-20T13:26:36.037Z,2.00
2019-06-20T13:29:06.272Z,2.47
2019-06-20T13:31:51.752Z,1.90
2019-06-20T13:34:08.134Z,2.30
2019-06-20T13:36:39.518Z,2.40
2019-06-20T13:39:10.083Z,2.45
2019-06-20T13:41:41.089Z,2.20
2019-06-20T13:44:11.314Z,1.90
2019-06-20T13:46:43.299Z,2.00
2019-06-20T13:49:15.189Z,2.02
2019-06-20T13:51:45.891Z,2.15
2019-06-20T13:54:16.121Z,1.80
2019-06-20T13:56:47.232Z,1.80
2019-06-20T13:59:17.765Z,1.70
2019-06-20T14:01:49.058Z,1.60
2019-06-20T14:04:20.599Z,1.80
2019-06-20T14:06:50.692Z,2.20
2019-06-20T14:09:22.366Z,2.85
2019-06-20T14:11:53.847Z,2.77
2019-06-20T14:14:24.332Z,3.17
2019-06-20T14:16:55.034Z,5.33
2019-06-20T14:19:25.205Z,5.55
2019-06-20T14:21:56.515Z,5.33
2019-06-20T14:24:26.733Z,6.20
2019-06-20T14:26:56.841Z,6.62
2019-06-20T14:29:31.147Z,7.55
2019-06-20T14:32:03.563Z,6.85
2019-06-20T14:34:35.199Z,8.15
2019-06-20T14:37:05.353Z,7.10
2019-06-20T14:39:35.473Z,7.90
2019-06-20T14:42:07.180Z,7.35
2019-06-20T14:44:37.287Z,6.55
2019-06-20T14:47:09.473Z,6.45
2019-06-20T14:49:40.217Z,6.35
2019-06-20T14:52:12.615Z,5.67
2019-06-20T14:54:44.021Z,5.08
2019-06-20T14:57:14.668Z,5.20
2019-06-20T14:59:47.009Z,5.35
2019-06-20T15:02:18.486Z,5.37
2019-06-20T15:04:49.808Z,6.22
2019-06-20T15:07:20.238Z,6.72
2019-06-20T15:09:51.405Z,5.95
2019-06-20T15:12:21.707Z,6.53
2019-06-20T15:14:51.800Z,7.80
2019-06-20T15:17:21.954Z,7.53
2019-06-20T15:19:52.056Z,5.78
2019-06-20T15:22:22.214Z,7.78
2019-06-20T15:24:55.266Z,7.10
2019-06-20T15:27:25.185Z,8.25
2019-06-20T15:29:56.493Z,6.92
2019-06-20T15:32:26.741Z,7.53
2019-06-20T15:34:57.252Z,6.78
2019-06-20T15:37:27.504Z,8.10
2019-06-20T15:39:57.649Z,8.20
2019-06-20T15:42:27.809Z,8.13
2019-06-20T15:44:59.505Z,7.87
2019-06-20T15:47:29.625Z,7.95
2019-06-20T15:49:59.786Z,7.70
2019-06-20T15:52:29.878Z,8.28
2019-06-20T15:55:00.027Z,7.12
2019-06-20T15:57:30.131Z,6.60
2019-06-20T16:00:00.281Z,7.40
2019-06-20T16:02:30.398Z,7.53
2019-06-20T16:05:00.537Z,5.53
2019-06-20T16:07:30.653Z,5.95
2019-06-20T16:10:00.781Z,6.65
2019-06-20T16:12:30.885Z,4.85
2019-06-20T16:15:01.029Z,5.22
2019-06-20T16:17:31.144Z,4.40
2019-06-20T16:20:01.276Z,4.33
2019-06-20T16:22:31.511Z,4.12
2019-06-20T16:25:01.648Z,4.80
2019-06-20T16:27:31.751Z,4.72
2019-06-20T16:30:01.893Z,3.90
2019-06-20T16:32:31.988Z,3.77
2019-06-20T16:35:02.131Z,4.05
2019-06-20T16:37:32.236Z,3.72
2019-06-20T16:40:02.370Z,4.42
2019-06-20T16:42:32.514Z,4.22
2019-06-20T16:45:02.612Z,4.10
2019-06-20T16:47:32.748Z,4.50
2019-06-20T16:50:05.448Z,4.90
2019-06-20T16:52:35.602Z,3.95
2019-06-20T16:55:06.520Z,3.50
2019-06-20T16:57:36.641Z,4.15
2019-06-20T17:00:11.530Z,4.30
2019-06-20T17:05:11.852Z,4.62
2019-06-20T17:07:41.994Z,4.40
2019-06-20T17:10:12.109Z,4.28
2019-06-20T17:12:42.254Z,4.05
2019-06-20T17:15:12.337Z,3.70
2019-06-20T17:17:42.473Z,4.10
2019-06-20T17:20:13.892Z,3.55
2019-06-20T17:22:44.017Z,3.77
2019-06-20T17:25:14.732Z,2.90
2019-06-20T17:27:44.872Z,3.87
2019-06-20T17:30:20.469Z,3.33
2019-06-20T17:32:50.679Z,4.08
2019-06-20T17:35:22.347Z,4.33
2019-06-20T17:37:52.501Z,4.50
2019-06-20T17:40:22.594Z,4.80
2019-06-20T17:42:52.736Z,4.75
2019-06-20T17:45:22.871Z,4.47
2019-06-20T17:47:52.991Z,5.22
2019-06-20T17:50:25.823Z,4.70
2019-06-20T17:52:54.852Z,4.45
2019-06-20T17:55:25.000Z,3.70
2019-06-20T17:57:55.099Z,3.50
2019-06-20T18:00:25.233Z,3.98
2019-06-20T18:02:55.344Z,3.58
2019-06-20T18:05:25.477Z,3.70
2019-06-20T18:07:55.576Z,3.45
2019-06-20T18:10:25.728Z,3.92
2019-06-20T18:12:55.825Z,4.20
2019-06-20T18:15:25.969Z,3.70
2019-06-20T18:17:56.069Z,3.52
2019-06-20T18:20:26.208Z,3.92
2019-06-20T18:22:56.309Z,3.58
2019-06-20T18:25:27.553Z,3.47
2019-06-20T18:27:57.667Z,4.10
2019-06-20T18:30:44.360Z,3.55
2019-06-20T18:33:14.461Z,4.72
2019-06-20T18:35:44.633Z,3.35
2019-06-20T18:38:14.734Z,3.30
2019-06-20T18:40:45.238Z,2.85
2019-06-20T18:43:15.374Z,2.02
2019-06-20T18:45:45.474Z,2.62
2019-06-20T18:48:15.812Z,3.00
2019-06-20T18:50:45.921Z,3.27
2019-06-20T18:53:16.059Z,3.40
2019-06-20T18:55:46.158Z,3.45
2019-06-20T18:58:16.293Z,3.58
2019-06-20T19:00:46.396Z,3.80
2019-06-20T19:03:16.542Z,2.90
2019-06-20T19:05:46.646Z,2.65
2019-06-20T19:08:16.780Z,2.65
2019-06-20T19:10:46.881Z,3.12
2019-06-20T19:13:17.023Z,2.80
2019-06-20T19:15:47.421Z,3.77
2019-06-20T19:18:17.569Z,3.85
2019-06-20T19:20:47.675Z,3.87
2019-06-20T19:23:17.896Z,2.80
2019-06-20T19:25:48.039Z,3.83
2019-06-20T19:28:18.165Z,3.87
2019-06-20T19:30:50.602Z,3.80
2019-06-20T19:33:20.707Z,3.22
2019-06-20T19:35:51.947Z,3.70
2019-06-20T19:38:22.044Z,2.98
2019-06-20T19:40:52.192Z,3.90
2019-06-20T19:43:22.300Z,4.80
2019-06-20T19:45:52.428Z,4.45
2019-06-20T19:48:22.529Z,4.30
2019-06-20T19:50:52.694Z,4.42
2019-06-20T19:53:22.785Z,4.92
2019-06-20T19:55:52.924Z,4.67
2019-06-20T19:58:23.095Z,4.90
2019-06-20T20:00:53.238Z,3.25
2019-06-20T20:03:23.334Z,4.50
2019-06-20T20:05:53.482Z,4.40
2019-06-20T20:08:23.585Z,4.15
2019-06-20T20:10:53.820Z,3.95
2019-06-20T20:13:23.920Z,3.42
2019-06-20T20:15:54.072Z,3.83
2019-06-20T20:18:24.169Z,4.35
2019-06-20T20:20:54.321Z,4.60
2019-06-20T20:23:24.409Z,4.70
2019-06-20T20:25:54.585Z,3.92
2019-06-20T20:28:24.694Z,5.20
2019-06-20T20:30:54.788Z,4.17
2019-06-20T20:33:24.927Z,4.87
2019-06-20T20:35:55.629Z,4.97
2019-06-20T20:38:25.765Z,5.53
2019-06-20T20:40:55.866Z,3.70
2019-06-20T20:43:26.011Z,4.90
2019-06-20T20:45:56.105Z,3.87
2019-06-20T20:48:26.248Z,5.28
2019-06-20T20:50:57.446Z,4.90
2019-06-20T20:53:27.593Z,5.42
2019-06-20T20:55:57.688Z,3.85
2019-06-20T20:58:27.832Z,5.17
2019-06-20T21:01:10.157Z,3.95
2019-06-20T21:03:40.292Z,4.20
2019-06-20T21:06:10.397Z,5.12
2019-06-20T21:08:40.538Z,3.85
2019-06-20T21:11:10.749Z,5.17
2019-06-20T21:13:40.876Z,4.35
2019-06-20T21:16:10.981Z,4.90
2019-06-20T21:18:41.122Z,5.10
2019-06-20T21:21:11.225Z,4.30
2019-06-20T21:23:41.367Z,4.50
2019-06-20T21:26:11.465Z,4.55
2019-06-20T21:28:41.606Z,4.05
2019-06-20T21:31:11.716Z,4.50
2019-06-20T21:33:41.845Z,3.20
2019-06-20T21:36:11.952Z,3.60
2019-06-20T21:38:43.193Z,3.65
2019-06-20T21:41:13.292Z,3.20
2019-06-20T21:43:43.437Z,3.30
2019-06-20T21:46:13.527Z,4.40
2019-06-20T21:48:43.679Z,4.78
2019-06-20T21:51:13.785Z,5.10
2019-06-20T21:53:44.924Z,5.37
2019-06-20T21:56:15.022Z,5.55
2019-06-20T21:58:45.201Z,3.70
2019-06-20T22:01:15.451Z,3.90
2019-06-20T22:03:45.777Z,5.30
2019-06-20T22:06:23.830Z,5.83
2019-06-20T22:08:47.641Z,4.67
2019-06-20T22:11:17.748Z,5.40
2019-06-20T22:13:47.888Z,5.40
2019-06-20T22:16:17.984Z,5.90
2019-06-20T22:18:48.129Z,5.75
2019-06-20T22:21:18.264Z,5.87
2019-06-20T22:23:48.404Z,6.20
2019-06-20T22:26:18.561Z,6.10
2019-06-20T22:28:48.667Z,5.65
2019-06-20T22:31:18.812Z,6.30
2019-06-20T22:33:48.912Z,6.30
2019-06-20T22:36:19.049Z,5.70
2019-06-20T22:38:49.157Z,5.10
2019-06-20T22:41:19.288Z,4.45
2019-06-20T22:43:49.389Z,3.80
2019-06-20T22:46:19.527Z,3.35
2019-06-20T22:48:49.625Z,3.40
2019-06-20T22:51:19.766Z,4.60
2019-06-20T22:53:50.866Z,5.03
2019-06-20T22:56:21.021Z,4.05
2019-06-20T22:58:51.120Z,5.10
2019-06-20T23:01:21.263Z,5.40
2019-06-20T23:03:52.903Z,5.10
2019-06-20T23:06:23.038Z,6.12
2019-06-20T23:08:53.147Z,5.85
2019-06-20T23:11:23.284Z,5.22
2019-06-20T23:13:53.383Z,5.47
2019-06-20T23:16:23.516Z,6.08
2019-06-20T23:18:53.664Z,6.67
2019-06-20T23:21:23.770Z,5.80
2019-06-20T23:23:53.908Z,5.72
2019-06-20T23:26:24.009Z,4.53
2019-06-20T23:29:12.289Z,4.22
2019-06-20T23:31:43.495Z,5.03
2019-06-20T23:34:13.636Z,5.50
2019-06-20T23:36:43.732Z,5.72
2019-06-20T23:39:13.878Z,5.58
2019-06-20T23:41:43.977Z,5.75
2019-06-20T23:44:14.124Z,6.22
2019-06-20T23:46:44.224Z,5.72
2019-06-20T23:49:14.365Z,5.90
2019-06-20T23:51:46.036Z,4.22
2019-06-20T23:54:16.190Z,4.30
2019-06-20T23:56:46.296Z,5.55
2019-06-20T23:59:16.446Z,3.52
